createdAt,value
2023-03-29T00:01:35.383Z,15.75
2023-03-29T00:03:40.542Z,13.80
2023-03-29T00:05:44.936Z,16.38
2023-03-29T00:09:52.631Z,13.73
2023-03-29T00:11:58.047Z,12.80
2023-03-29T00:14:01.055Z,12.90
2023-03-29T00:16:03.640Z,15.40
2023-03-29T00:18:06.507Z,14.32
2023-03-29T00:20:10.492Z,23.08
2023-03-29T00:22:13.617Z,20.88
2023-03-29T00:24:16.248Z,17.35
2023-03-29T00:26:22.019Z,16.75
2023-03-29T00:28:24.592Z,19.05
2023-03-29T00:30:27.283Z,15.00
2023-03-29T00:32:33.228Z,14.90
2023-03-29T00:34:38.174Z,19.98
2023-03-29T00:36:40.775Z,16.13
2023-03-29T00:38:43.509Z,25.38
2023-03-29T00:40:47.221Z,15.90
2023-03-29T00:42:52.357Z,20.13
2023-03-29T00:45:01.077Z,19.15
2023-03-29T00:47:03.742Z,22.20
2023-03-29T00:49:09.600Z,22.38
2023-03-29T00:51:15.260Z,19.63
2023-03-29T00:53:21.927Z,16.98
2023-03-29T00:55:29.505Z,33.97
2023-03-29T00:57:34.121Z,18.48
2023-03-29T00:59:42.122Z,20.95
2023-03-29T01:01:48.607Z,17.27
2023-03-29T01:03:56.284Z,18.30
2023-03-29T01:06:02.576Z,17.92
2023-03-29T01:08:08.594Z,15.30
2023-03-29T01:10:16.375Z,16.42
2023-03-29T01:12:24.493Z,16.08
2023-03-29T01:14:34.050Z,17.60
2023-03-29T01:16:40.123Z,19.35
2023-03-29T01:18:42.814Z,17.15
2023-03-29T01:21:03.560Z,17.50
2023-03-29T01:23:27.113Z,19.10
2023-03-29T01:25:37.690Z,16.20
2023-03-29T01:27:51.837Z,19.80
2023-03-29T01:29:58.798Z,27.23
2023-03-29T01:32:05.353Z,17.70
2023-03-29T01:34:12.960Z,21.80
2023-03-29T01:36:20.832Z,16.17
2023-03-29T01:38:29.592Z,25.38
2023-03-29T01:40:33.785Z,17.58
2023-03-29T01:42:48.002Z,24.30
2023-03-29T01:44:57.980Z,16.02
2023-03-29T01:47:07.481Z,19.55
2023-03-29T01:49:17.010Z,19.38
2023-03-29T01:51:25.462Z,23.05
2023-03-29T01:53:32.563Z,17.80
2023-03-29T01:55:38.839Z,19.98
2023-03-29T01:57:47.522Z,18.67
2023-03-29T01:59:56.369Z,17.00
2023-03-29T02:02:02.528Z,16.75
2023-03-29T02:04:10.753Z,18.45
2023-03-29T02:06:17.169Z,20.70
2023-03-29T02:08:22.157Z,17.85
2023-03-29T02:10:25.861Z,20.88
2023-03-29T02:12:28.347Z,15.98
2023-03-29T02:14:33.714Z,21.23
2023-03-29T02:16:37.051Z,16.65
2023-03-29T02:18:40.516Z,19.70
2023-03-29T02:20:47.510Z,15.93
2023-03-29T02:22:55.271Z,16.17
2023-03-29T02:24:59.893Z,17.00
2023-03-29T02:27:02.605Z,17.90
2023-03-29T02:29:07.841Z,17.98
2023-03-29T02:31:21.478Z,17.20
2023-03-29T02:33:31.449Z,16.02
2023-03-29T02:35:41.040Z,16.83
2023-03-29T02:37:49.682Z,20.42
2023-03-29T02:39:53.973Z,17.65
2023-03-29T02:41:57.716Z,18.15
2023-03-29T02:44:02.099Z,16.95
2023-03-29T02:46:07.933Z,17.92
2023-03-29T02:48:17.415Z,16.90
2023-03-29T02:50:21.596Z,17.85
2023-03-29T02:52:28.807Z,19.90
2023-03-29T02:54:31.788Z,22.00
2023-03-29T02:56:43.554Z,17.40
2023-03-29T02:58:47.020Z,16.52
2023-03-29T03:00:50.540Z,17.60
2023-03-29T03:02:53.364Z,17.60
2023-03-29T03:04:59.519Z,16.40
2023-03-29T03:07:02.407Z,17.80
2023-03-29T03:09:06.138Z,19.73
2023-03-29T03:11:12.229Z,17.73
2023-03-29T03:13:15.550Z,19.65
2023-03-29T03:15:19.172Z,22.85
2023-03-29T03:17:23.281Z,21.38
2023-03-29T03:19:26.162Z,19.42
2023-03-29T03:21:31.297Z,20.02
2023-03-29T03:23:37.237Z,20.58
2023-03-29T03:25:40.281Z,24.60
2023-03-29T03:27:42.984Z,21.42
2023-03-29T03:29:46.342Z,20.13
2023-03-29T03:31:53.952Z,19.45
2023-03-29T03:34:15.712Z,20.25
2023-03-29T03:36:29.293Z,19.38
2023-03-29T03:38:37.593Z,19.83
2023-03-29T03:40:40.576Z,25.85
2023-03-29T03:42:43.153Z,22.20
2023-03-29T03:44:46.592Z,21.02
2023-03-29T03:47:13.916Z,18.20
2023-03-29T03:49:17.882Z,19.65
2023-03-29T03:51:20.493Z,21.30
2023-03-29T03:53:25.347Z,25.83
2023-03-29T03:55:51.896Z,22.48
2023-03-29T03:57:59.630Z,20.33
2023-03-29T04:02:18.047Z,17.25
2023-03-29T04:04:20.915Z,22.48
2023-03-29T04:06:50.684Z,23.55
2023-03-29T04:09:09.481Z,23.08
2023-03-29T04:11:18.230Z,25.25
2023-03-29T04:13:22.664Z,25.48
2023-03-29T04:15:46.241Z,28.65
2023-03-29T04:17:50.168Z,21.65
2023-03-29T04:20:12.786Z,24.58
2023-03-29T04:22:16.967Z,32.28
2023-03-29T04:24:19.542Z,23.52
2023-03-29T04:26:44.857Z,25.15
2023-03-29T04:28:54.782Z,20.20
2023-03-29T04:31:11.385Z,16.67
2023-03-29T04:33:34.263Z,15.95
2023-03-29T04:35:37.357Z,17.33
2023-03-29T04:37:42.054Z,17.00
2023-03-29T04:39:51.095Z,18.67
2023-03-29T04:41:56.434Z,16.25
2023-03-29T04:44:03.855Z,14.75
2023-03-29T04:46:09.559Z,11.48
2023-03-29T04:48:50.842Z,11.23
2023-03-29T04:51:02.305Z,9.82
2023-03-29T04:53:06.110Z,12.73
2023-03-29T04:55:09.783Z,9.20
2023-03-29T04:57:41.490Z,8.40
2023-03-29T04:59:52.677Z,7.60
2023-03-29T05:02:15.198Z,7.90
2023-03-29T05:04:20.946Z,8.23
2023-03-29T05:06:38.927Z,7.65
2023-03-29T05:08:43.852Z,7.68
2023-03-29T05:11:10.597Z,8.95
2023-03-29T05:15:19.570Z,8.35
2023-03-29T05:19:33.811Z,8.00
2023-03-29T05:21:36.829Z,7.70
2023-03-29T05:23:43.427Z,7.80
2023-03-29T05:25:47.886Z,8.23
2023-03-29T05:27:50.635Z,8.38
2023-03-29T05:29:56.283Z,8.70
2023-03-29T05:32:05.096Z,8.55
2023-03-29T05:34:09.247Z,8.43
2023-03-29T05:36:19.490Z,7.85
2023-03-29T05:38:43.069Z,8.55
2023-03-29T05:40:47.517Z,8.90
2023-03-29T05:43:12.339Z,8.85
2023-03-29T05:45:17.879Z,8.33
2023-03-29T05:47:20.555Z,8.73
2023-03-29T05:49:23.079Z,8.70
2023-03-29T05:51:57.289Z,10.02
2023-03-29T05:54:01.475Z,8.48
2023-03-29T05:56:04.590Z,8.30
2023-03-29T05:58:07.285Z,9.07
2023-03-29T06:00:32.111Z,8.98
2023-03-29T06:02:52.828Z,9.35
2023-03-29T06:04:57.703Z,8.55
2023-03-29T06:07:02.229Z,9.30
2023-03-29T06:09:15.918Z,9.80
2023-03-29T06:11:30.748Z,10.40
2023-03-29T06:13:58.515Z,9.05
2023-03-29T06:16:01.068Z,9.65
2023-03-29T06:18:07.286Z,8.82
2023-03-29T06:20:12.399Z,9.73
2023-03-29T06:22:18.483Z,10.35
2023-03-29T06:24:21.286Z,9.95
2023-03-29T06:26:29.622Z,9.82
2023-03-29T06:28:32.129Z,11.65
2023-03-29T06:30:34.838Z,10.20
2023-03-29T06:32:37.944Z,10.85
2023-03-29T06:34:54.753Z,10.40
2023-03-29T06:37:06.077Z,10.15
2023-03-29T06:39:08.895Z,10.73
2023-03-29T06:41:31.701Z,10.57
2023-03-29T06:43:43.381Z,12.30
2023-03-29T06:45:50.867Z,11.55
2023-03-29T06:48:03.794Z,11.77
2023-03-29T06:50:11.828Z,11.60
2023-03-29T06:52:28.324Z,11.70
2023-03-29T06:54:31.929Z,11.50
2023-03-29T06:56:41.249Z,10.55
2023-03-29T06:58:48.805Z,12.02
2023-03-29T07:01:14.313Z,11.18
2023-03-29T07:03:24.812Z,10.65
2023-03-29T07:05:42.255Z,11.30
2023-03-29T07:08:12.620Z,10.75
2023-03-29T07:10:38.456Z,10.77
2023-03-29T07:13:17.501Z,11.25
2023-03-29T07:15:21.611Z,11.45
2023-03-29T07:17:42.430Z,11.40
2023-03-29T07:19:45.095Z,11.23
2023-03-29T07:22:09.430Z,11.20
2023-03-29T07:24:22.682Z,10.70
2023-03-29T07:26:28.458Z,11.25
2023-03-29T07:28:33.300Z,10.60
2023-03-29T07:30:35.870Z,9.85
2023-03-29T07:32:47.458Z,10.98
2023-03-29T07:35:07.128Z,10.50
2023-03-29T07:37:13.793Z,10.50
2023-03-29T07:39:18.449Z,10.48
2023-03-29T07:41:38.726Z,9.80
2023-03-29T07:43:48.567Z,9.75
2023-03-29T07:45:59.202Z,15.75
2023-03-29T07:48:02.309Z,10.63
2023-03-29T07:50:20.014Z,10.55
2023-03-29T07:52:28.295Z,10.63
2023-03-29T07:54:32.969Z,10.43
2023-03-29T07:56:55.601Z,15.55
2023-03-29T07:59:07.274Z,9.45
2023-03-29T08:01:11.052Z,10.52
2023-03-29T08:03:34.191Z,8.93
2023-03-29T08:05:41.249Z,10.40
2023-03-29T08:07:52.221Z,9.95
2023-03-29T08:10:09.486Z,10.65
2023-03-29T08:12:26.374Z,9.10
2023-03-29T08:14:32.137Z,12.95
2023-03-29T08:16:40.521Z,9.70
2023-03-29T08:18:48.082Z,12.60
2023-03-29T08:20:54.141Z,9.50
2023-03-29T08:22:59.702Z,10.35
2023-03-29T08:25:20.728Z,10.35
2023-03-29T08:27:27.361Z,11.43
2023-03-29T08:29:31.402Z,10.30
2023-03-29T08:31:34.855Z,10.18
2023-03-29T08:33:37.737Z,8.73
2023-03-29T08:36:02.871Z,10.20
2023-03-29T08:38:11.353Z,10.30
2023-03-29T08:40:20.883Z,9.40
2023-03-29T08:43:06.405Z,9.35
2023-03-29T08:45:35.708Z,10.27
2023-03-29T08:47:50.949Z,9.68
2023-03-29T08:49:56.486Z,8.82
2023-03-29T08:52:14.983Z,10.18
2023-03-29T08:54:25.199Z,9.32
2023-03-29T08:56:50.235Z,8.52
2023-03-29T08:59:04.110Z,9.57
2023-03-29T09:01:11.801Z,10.25
2023-03-29T09:03:31.537Z,9.65
2023-03-29T09:05:44.611Z,9.90
2023-03-29T09:07:58.833Z,8.65
2023-03-29T09:10:04.931Z,9.68
2023-03-29T09:12:29.852Z,9.15
2023-03-29T09:14:51.958Z,10.07
2023-03-29T09:17:05.495Z,14.85
2023-03-29T09:19:18.846Z,10.70
2023-03-29T09:21:30.058Z,9.87
2023-03-29T09:23:50.488Z,11.18
2023-03-29T09:26:19.408Z,10.45
2023-03-29T09:28:45.907Z,10.10
2023-03-29T09:30:55.132Z,9.70
2023-03-29T09:33:02.067Z,11.35
2023-03-29T09:35:23.147Z,9.20
2023-03-29T09:37:33.589Z,10.55
2023-03-29T09:39:38.166Z,9.90
2023-03-29T09:41:52.556Z,11.95
2023-03-29T09:44:00.231Z,11.35
2023-03-29T09:46:16.192Z,11.30
2023-03-29T09:48:20.920Z,10.68
2023-03-29T09:50:34.977Z,11.85
2023-03-29T09:52:40.537Z,11.45
2023-03-29T09:54:54.081Z,14.48
2023-03-29T09:57:17.945Z,13.27
2023-03-29T09:59:21.021Z,12.02
2023-03-29T10:01:23.570Z,14.57
2023-03-29T10:03:29.767Z,12.07
2023-03-29T10:05:43.725Z,12.07
2023-03-29T10:07:52.717Z,13.07
2023-03-29T10:09:56.329Z,14.75
2023-03-29T10:12:03.883Z,13.52
2023-03-29T10:14:16.983Z,11.70
2023-03-29T10:16:21.764Z,13.07
2023-03-29T10:18:27.840Z,16.63
2023-03-29T10:20:30.534Z,12.05
2023-03-29T10:22:37.876Z,11.48
2023-03-29T10:24:40.614Z,12.95
2023-03-29T10:26:43.505Z,12.88
2023-03-29T10:28:46.223Z,11.25
2023-03-29T10:30:55.492Z,13.02
2023-03-29T10:32:59.968Z,13.32
2023-03-29T10:35:10.931Z,13.02
2023-03-29T10:37:14.869Z,12.63
2023-03-29T10:39:17.607Z,14.05
2023-03-29T10:41:21.964Z,12.00
2023-03-29T10:45:37.859Z,13.77
2023-03-29T10:47:45.617Z,14.60
2023-03-29T10:49:54.360Z,13.23
2023-03-29T10:51:58.550Z,16.27
2023-03-29T10:54:02.575Z,25.65
2023-03-29T10:56:23.150Z,18.00
2023-03-29T10:58:33.604Z,12.65
2023-03-29T11:00:44.201Z,15.18
2023-03-29T11:03:31.716Z,12.75
2023-03-29T11:05:44.822Z,14.95
2023-03-29T11:08:02.091Z,13.32
2023-03-29T11:10:26.250Z,25.80
2023-03-29T11:12:35.120Z,15.68
2023-03-29T11:14:48.120Z,20.27
2023-03-29T11:16:58.560Z,18.25
2023-03-29T11:19:29.406Z,14.98
2023-03-29T11:21:43.012Z,13.25
2023-03-29T11:23:54.284Z,13.85
2023-03-29T11:26:05.364Z,15.25
2023-03-29T11:28:14.938Z,23.08
2023-03-29T11:30:24.161Z,20.17
2023-03-29T11:32:33.535Z,17.92
2023-03-29T11:34:45.818Z,12.77
2023-03-29T11:36:58.985Z,16.40
2023-03-29T11:39:09.774Z,21.73
2023-03-29T11:41:17.988Z,16.63
2023-03-29T11:43:27.100Z,28.45
2023-03-29T11:45:34.351Z,19.20
2023-03-29T11:47:41.238Z,19.58
2023-03-29T11:49:49.401Z,22.85
2023-03-29T11:51:59.762Z,19.65
2023-03-29T11:54:06.763Z,18.90
2023-03-29T11:56:13.683Z,22.17
2023-03-29T11:58:20.176Z,20.73
2023-03-29T12:00:27.624Z,17.08
2023-03-29T12:02:34.965Z,17.02
2023-03-29T12:04:45.040Z,24.25
2023-03-29T12:06:53.535Z,15.68
2023-03-29T12:09:02.535Z,16.95
2023-03-29T12:11:10.110Z,16.80
2023-03-29T12:13:19.396Z,17.45
2023-03-29T12:15:25.050Z,17.38
2023-03-29T12:17:32.287Z,21.13
2023-03-29T12:19:43.279Z,16.17
2023-03-29T12:21:50.551Z,18.75
2023-03-29T12:23:58.524Z,15.77
2023-03-29T12:26:07.766Z,17.63
2023-03-29T12:28:23.626Z,19.13
2023-03-29T12:30:42.836Z,21.65
2023-03-29T12:33:09.078Z,25.13
2023-03-29T12:35:52.678Z,17.50
2023-03-29T12:38:22.248Z,19.13
2023-03-29T12:40:48.066Z,18.40
2023-03-29T12:43:21.180Z,20.00
2023-03-29T12:45:51.227Z,17.45
2023-03-29T12:47:58.678Z,27.35
2023-03-29T12:50:02.181Z,21.42
2023-03-29T12:52:22.090Z,20.80
2023-03-29T12:54:28.138Z,19.88
2023-03-29T12:56:42.378Z,23.77
2023-03-29T12:59:05.698Z,28.83
2023-03-29T13:01:11.672Z,20.85
2023-03-29T13:03:29.750Z,18.42
2023-03-29T13:05:34.821Z,17.73
2023-03-29T13:07:47.928Z,22.55
2023-03-29T13:09:52.212Z,22.08
2023-03-29T13:14:06.748Z,16.73
2023-03-29T13:16:14.898Z,17.58
2023-03-29T13:18:39.472Z,24.00
2023-03-29T13:20:46.969Z,17.95
2023-03-29T13:23:04.837Z,28.67
2023-03-29T13:25:35.720Z,23.38
2023-03-29T13:27:48.153Z,23.67
2023-03-29T13:30:04.920Z,25.02
2023-03-29T13:32:27.342Z,21.98
2023-03-29T13:34:38.515Z,19.52
2023-03-29T13:36:53.951Z,22.50
2023-03-29T13:39:00.795Z,23.25
2023-03-29T13:41:05.179Z,21.30
2023-03-29T13:43:21.858Z,22.50
2023-03-29T13:45:27.527Z,25.65
2023-03-29T13:47:43.182Z,20.45
2023-03-29T13:49:54.698Z,19.38
2023-03-29T13:52:13.417Z,21.58
2023-03-29T13:54:27.194Z,20.13
2023-03-29T13:56:34.395Z,19.17
2023-03-29T13:58:45.075Z,21.35
2023-03-29T14:00:52.328Z,27.25
2023-03-29T14:02:57.659Z,20.70
2023-03-29T14:05:02.306Z,24.02
2023-03-29T14:07:06.979Z,20.98
2023-03-29T14:09:12.936Z,20.60
2023-03-29T14:11:23.297Z,18.40
2023-03-29T14:13:27.096Z,21.83
2023-03-29T14:15:42.498Z,16.92
2023-03-29T14:17:45.077Z,32.85
2023-03-29T14:19:48.996Z,19.35
2023-03-29T14:21:53.406Z,23.38
2023-03-29T14:23:59.908Z,22.13
2023-03-29T14:26:08.265Z,20.33
2023-03-29T14:28:20.326Z,19.02
2023-03-29T14:30:27.735Z,23.73
2023-03-29T14:32:33.488Z,22.02
2023-03-29T14:34:36.415Z,21.63
2023-03-29T14:36:39.432Z,24.42
2023-03-29T14:38:44.349Z,17.65
2023-03-29T14:40:47.210Z,23.92
2023-03-29T14:42:51.101Z,21.90
2023-03-29T14:44:58.672Z,21.80
2023-03-29T14:47:03.037Z,21.63
2023-03-29T14:49:10.508Z,24.67
2023-03-29T14:51:15.197Z,19.70
2023-03-29T14:53:20.026Z,20.13
2023-03-29T14:55:24.116Z,19.20
2023-03-29T14:57:32.754Z,26.25
2023-03-29T14:59:38.142Z,20.35
2023-03-29T15:01:44.721Z,21.73
2023-03-29T15:03:54.697Z,25.42
2023-03-29T15:06:04.491Z,26.13
2023-03-29T15:08:15.726Z,25.50
2023-03-29T15:10:19.339Z,22.90
2023-03-29T15:12:22.327Z,24.40
2023-03-29T15:14:27.485Z,19.52
2023-03-29T15:16:30.815Z,26.38
2023-03-29T15:18:38.686Z,23.30
2023-03-29T15:20:45.576Z,22.13
2023-03-29T15:22:58.794Z,22.80
2023-03-29T15:25:04.281Z,24.55
2023-03-29T15:27:14.430Z,21.73
2023-03-29T15:29:26.225Z,21.95
2023-03-29T15:31:35.617Z,26.63
2023-03-29T15:33:40.293Z,24.30
2023-03-29T15:35:54.903Z,22.75
2023-03-29T15:38:03.633Z,22.15
2023-03-29T15:40:16.155Z,25.38
2023-03-29T15:42:18.758Z,22.90
2023-03-29T15:44:26.458Z,22.73
2023-03-29T15:46:29.287Z,19.98
2023-03-29T15:48:33.963Z,18.70
2023-03-29T15:50:37.004Z,18.30
2023-03-29T15:52:40.569Z,20.27
2023-03-29T15:54:45.640Z,18.70
2023-03-29T15:56:52.216Z,19.83
2023-03-29T15:58:54.868Z,18.45
2023-03-29T16:00:59.949Z,18.02
2023-03-29T16:03:02.450Z,17.02
2023-03-29T16:05:05.454Z,19.30
2023-03-29T16:07:14.566Z,16.75
2023-03-29T16:09:17.566Z,18.38
2023-03-29T16:11:22.770Z,17.70
2023-03-29T16:13:25.388Z,17.45
2023-03-29T16:15:28.737Z,16.00
2023-03-29T16:17:31.453Z,17.07
2023-03-29T16:19:34.533Z,17.83
2023-03-29T16:21:37.111Z,16.90
2023-03-29T16:23:39.615Z,17.33
2023-03-29T16:25:42.248Z,18.02
2023-03-29T16:27:47.544Z,17.05
2023-03-29T16:29:59.140Z,18.35
2023-03-29T16:32:02.910Z,17.83
2023-03-29T16:34:06.956Z,17.75
2023-03-29T16:36:10.329Z,16.50
2023-03-29T16:38:12.811Z,18.05
2023-03-29T16:40:16.621Z,17.60
2023-03-29T16:42:19.270Z,16.08
2023-03-29T16:44:26.534Z,15.63
2023-03-29T16:46:29.802Z,16.48
2023-03-29T16:48:32.339Z,15.63
2023-03-29T16:50:34.974Z,15.13
2023-03-29T16:52:38.085Z,15.07
2023-03-29T16:54:42.456Z,14.32
2023-03-29T16:56:45.299Z,14.30
2023-03-29T16:58:47.860Z,12.27
2023-03-29T17:00:53.846Z,12.90
2023-03-29T17:02:56.355Z,11.50
2023-03-29T17:04:59.043Z,11.30
2023-03-29T17:07:01.834Z,11.52
2023-03-29T17:09:05.344Z,11.88
2023-03-29T17:11:08.151Z,11.40
2023-03-29T17:13:11.639Z,11.65
2023-03-29T17:15:14.698Z,11.90
2023-03-29T17:17:19.960Z,12.05
2023-03-29T17:19:23.042Z,11.60
2023-03-29T17:21:26.049Z,10.80
2023-03-29T17:23:29.426Z,12.52
2023-03-29T17:25:32.162Z,11.73
2023-03-29T17:27:35.071Z,11.70
2023-03-29T17:29:38.599Z,10.82
2023-03-29T17:31:47.845Z,11.32
2023-03-29T17:33:53.170Z,12.18
2023-03-29T17:35:56.238Z,12.80
2023-03-29T17:37:59.090Z,12.48
2023-03-29T17:40:02.240Z,12.27
2023-03-29T17:42:04.983Z,12.43
2023-03-29T17:44:07.587Z,12.15
2023-03-29T17:46:10.081Z,12.68
2023-03-29T17:48:12.655Z,13.23
2023-03-29T17:50:18.227Z,13.48
2023-03-29T17:52:20.728Z,12.80
2023-03-29T17:54:23.473Z,13.13
2023-03-29T17:56:26.804Z,12.68
2023-03-29T17:58:29.913Z,13.45
2023-03-29T18:00:32.746Z,13.30
2023-03-29T18:02:35.387Z,14.65
2023-03-29T18:04:38.083Z,14.80
2023-03-29T18:06:43.235Z,14.48
2023-03-29T18:08:45.925Z,15.07
2023-03-29T18:10:48.500Z,13.75
2023-03-29T18:12:51.911Z,13.38
2023-03-29T18:14:54.654Z,16.50
2023-03-29T18:16:57.374Z,15.35
2023-03-29T18:18:59.964Z,15.52
2023-03-29T18:21:02.649Z,15.85
2023-03-29T18:23:07.794Z,14.50
2023-03-29T18:25:11.324Z,16.33
2023-03-29T18:27:15.776Z,15.90
2023-03-29T18:29:18.411Z,14.68
2023-03-29T18:31:21.085Z,14.40
2023-03-29T18:33:23.892Z,14.82
2023-03-29T18:35:27.452Z,15.02
2023-03-29T18:37:30.002Z,16.85
2023-03-29T18:39:35.212Z,15.40
2023-03-29T18:41:37.973Z,15.05
2023-03-29T18:43:41.518Z,15.30
2023-03-29T18:45:44.838Z,15.40
2023-03-29T18:47:47.576Z,14.77
2023-03-29T18:49:50.178Z,15.32
2023-03-29T18:51:54.472Z,15.77
2023-03-29T18:56:03.183Z,15.68
2023-03-29T18:58:06.672Z,15.95
2023-03-29T19:00:13.623Z,14.85
2023-03-29T19:02:16.265Z,15.30
2023-03-29T19:04:20.606Z,14.40
2023-03-29T19:06:23.409Z,15.75
2023-03-29T19:08:26.558Z,15.65
2023-03-29T19:10:29.189Z,14.80
2023-03-29T19:12:34.509Z,15.32
2023-03-29T19:14:36.932Z,16.15
2023-03-29T19:16:41.529Z,15.48
2023-03-29T19:18:47.177Z,16.27
2023-03-29T19:20:51.402Z,15.95
2023-03-29T19:24:56.499Z,14.75
2023-03-29T19:26:59.020Z,15.70
2023-03-29T19:29:04.192Z,15.80
2023-03-29T19:31:07.447Z,15.23
2023-03-29T19:33:10.024Z,15.53
2023-03-29T19:35:13.965Z,16.00
2023-03-29T19:37:17.766Z,15.80
2023-03-29T19:39:21.062Z,14.50
2023-03-29T19:41:23.743Z,15.90
2023-03-29T19:43:27.236Z,14.98
2023-03-29T19:45:32.457Z,15.52
2023-03-29T19:47:35.434Z,15.05
2023-03-29T19:49:38.517Z,14.98
2023-03-29T19:51:41.134Z,15.38
2023-03-29T19:53:43.707Z,14.80
2023-03-29T19:55:46.304Z,15.32
2023-03-29T19:57:48.943Z,14.70
2023-03-29T19:59:54.069Z,14.25
2023-03-29T20:04:02.782Z,14.68
2023-03-29T20:06:05.642Z,14.00
2023-03-29T20:08:08.300Z,14.57
2023-03-29T20:10:11.410Z,14.63
2023-03-29T20:12:14.059Z,14.88
2023-03-29T20:14:16.875Z,14.93
2023-03-29T20:16:19.908Z,14.02
2023-03-29T20:18:25.145Z,15.05
2023-03-29T20:20:28.596Z,14.07
2023-03-29T20:22:32.912Z,14.38
2023-03-29T20:26:37.824Z,14.02
2023-03-29T20:28:40.294Z,14.43
2023-03-29T20:30:43.360Z,13.52
2023-03-29T20:32:45.832Z,14.50
2023-03-29T20:34:50.986Z,13.95
2023-03-29T20:37:01.062Z,14.38
2023-03-29T20:39:04.441Z,14.02
2023-03-29T20:41:09.505Z,14.50
2023-03-29T20:43:13.681Z,14.75
2023-03-29T20:47:21.558Z,14.75
2023-03-29T20:49:26.700Z,14.15
2023-03-29T20:51:32.328Z,13.40
2023-03-29T20:53:34.809Z,14.65
2023-03-29T20:55:40.162Z,14.75
2023-03-29T20:57:43.062Z,13.70
2023-03-29T20:59:46.804Z,14.63
2023-03-29T21:01:50.537Z,15.00
2023-03-29T21:03:53.745Z,15.07
2023-03-29T21:05:58.393Z,14.10
2023-03-29T21:08:04.511Z,14.15
2023-03-29T21:10:08.087Z,15.25
2023-03-29T21:12:11.072Z,14.70
2023-03-29T21:14:14.465Z,15.65
2023-03-29T21:16:17.133Z,14.77
2023-03-29T21:18:20.190Z,14.68
2023-03-29T21:20:22.741Z,14.10
2023-03-29T21:22:25.316Z,15.55
2023-03-29T21:24:32.918Z,14.85
2023-03-29T21:26:35.446Z,13.57
2023-03-29T21:28:38.128Z,15.40
2023-03-29T21:30:42.870Z,14.82
2023-03-29T21:32:45.676Z,14.75
2023-03-29T21:34:48.250Z,14.68
2023-03-29T21:36:50.893Z,15.18
2023-03-29T21:38:53.422Z,15.63
2023-03-29T21:40:59.803Z,14.43
2023-03-29T21:43:04.992Z,14.98
2023-03-29T21:45:09.466Z,14.73
2023-03-29T21:47:11.963Z,14.45
2023-03-29T21:49:14.505Z,14.88
2023-03-29T21:51:16.950Z,14.98
2023-03-29T21:53:19.522Z,14.75
2023-03-29T21:55:22.063Z,15.60
2023-03-29T21:57:27.237Z,15.73
2023-03-29T21:59:29.872Z,15.50
2023-03-29T22:01:32.495Z,14.82
2023-03-29T22:03:36.707Z,15.70
2023-03-29T22:05:39.341Z,16.00
2023-03-29T22:07:41.976Z,16.20
2023-03-29T22:09:44.748Z,15.93
2023-03-29T22:11:47.344Z,14.63
2023-03-29T22:13:54.582Z,14.75
2023-03-29T22:16:00.442Z,15.50
2023-03-29T22:18:03.352Z,15.70
2023-03-29T22:20:13.393Z,15.52
2023-03-29T22:22:16.485Z,15.13
2023-03-29T22:24:19.271Z,16.50
2023-03-29T22:26:23.976Z,16.58
2023-03-29T22:28:26.603Z,16.05
2023-03-29T22:30:31.773Z,16.70
2023-03-29T22:32:34.330Z,16.25
2023-03-29T22:34:36.959Z,16.98
2023-03-29T22:36:39.431Z,15.50
2023-03-29T22:38:42.036Z,16.67
2023-03-29T22:40:44.475Z,16.80
2023-03-29T22:42:46.948Z,15.00
2023-03-29T22:44:49.398Z,15.93
2023-03-29T22:46:54.519Z,14.30
2023-03-29T22:48:57.074Z,14.80
2023-03-29T22:51:00.174Z,15.52
2023-03-29T22:53:02.745Z,14.82
2023-03-29T22:55:06.715Z,14.65
2023-03-29T22:57:09.239Z,14.82
2023-03-29T22:59:11.806Z,14.63
2023-03-29T23:01:14.471Z,14.65
2023-03-29T23:03:19.714Z,14.32
2023-03-29T23:05:23.085Z,32.25
2023-03-29T23:07:25.914Z,34.38
2023-03-29T23:09:28.415Z,33.42
2023-03-29T23:11:31.163Z,49.17
2023-03-29T23:13:35.347Z,40.88
2023-03-29T23:15:43.007Z,34.90
2023-03-29T23:17:45.608Z,42.22
2023-03-29T23:19:51.715Z,56.85
2023-03-29T23:21:55.338Z,55.72
2023-03-29T23:24:00.798Z,51.55
2023-03-29T23:26:04.511Z,47.30
2023-03-29T23:28:07.190Z,50.10
2023-03-29T23:30:11.976Z,44.42
2023-03-29T23:32:15.885Z,59.30
2023-03-29T23:34:20.017Z,48.20
2023-03-29T23:36:27.397Z,45.15
2023-03-29T23:38:30.674Z,58.60
2023-03-29T23:40:33.466Z,66.32
2023-03-29T23:42:37.358Z,46.13
2023-03-29T23:44:42.907Z,45.00
2023-03-29T23:46:45.502Z,53.30
2023-03-29T23:48:50.276Z,64.07
2023-03-29T23:50:52.896Z,44.85
2023-03-29T23:52:58.626Z,44.33
2023-03-29T23:55:01.659Z,63.35
2023-03-29T23:57:04.416Z,50.50
2023-03-29T23:59:06.914Z,50.70
